createdAt,value
2019-01-13T00:02:21.180Z,17.35
2019-01-13T00:04:48.443Z,17.35
2019-01-13T00:07:15.650Z,17.37
2019-01-13T00:09:42.964Z,17.37
2019-01-13T00:12:10.160Z,17.36
2019-01-13T00:14:37.361Z,17.34
2019-01-13T00:17:04.589Z,17.34
2019-01-13T00:19:31.754Z,17.31
2019-01-13T00:21:59.030Z,17.31
2019-01-13T00:24:26.240Z,17.35
2019-01-13T00:26:53.581Z,17.35
2019-01-13T00:29:20.769Z,17.32
2019-01-13T00:31:48.033Z,17.32
2019-01-13T00:34:15.231Z,17.32
2019-01-13T00:36:42.578Z,17.32
2019-01-13T00:39:09.822Z,17.34
2019-01-13T00:41:37.021Z,17.33
2019-01-13T00:44:04.302Z,17.30
2019-01-13T00:46:31.526Z,17.28
2019-01-13T00:48:58.847Z,17.33
2019-01-13T00:51:26.027Z,17.32
2019-01-13T00:53:53.216Z,17.32
2019-01-13T00:56:20.459Z,17.32
2019-01-13T00:58:47.690Z,17.32
2019-01-13T01:01:14.931Z,17.29
2019-01-13T01:03:42.137Z,17.32
2019-01-13T01:06:09.426Z,17.34
2019-01-13T01:08:36.638Z,17.34
2019-01-13T01:11:03.848Z,17.37
2019-01-13T01:13:31.087Z,17.37
2019-01-13T01:15:58.353Z,17.37
2019-01-13T01:18:25.579Z,17.37
2019-01-13T01:20:52.801Z,17.35
2019-01-13T01:23:21.118Z,17.36
2019-01-13T01:25:48.338Z,17.36
2019-01-13T01:28:15.574Z,17.39
2019-01-13T01:30:42.918Z,17.39
2019-01-13T01:33:10.159Z,17.33
2019-01-13T01:35:37.473Z,17.33
2019-01-13T01:38:04.690Z,17.37
2019-01-13T01:40:31.912Z,17.35
2019-01-13T01:42:59.210Z,17.35
2019-01-13T01:45:26.392Z,17.35
2019-01-13T01:47:53.621Z,17.35
2019-01-13T01:50:20.859Z,17.36
2019-01-13T01:52:48.066Z,17.39
2019-01-13T01:55:17.014Z,17.38
2019-01-13T01:57:44.395Z,17.37
2019-01-13T02:00:16.584Z,17.37
2019-01-13T02:02:43.754Z,17.42
2019-01-13T02:05:10.995Z,17.39
2019-01-13T02:07:38.211Z,17.35
2019-01-13T02:10:08.029Z,17.35
2019-01-13T02:12:35.245Z,17.36
2019-01-13T02:15:03.690Z,17.40
2019-01-13T02:17:30.863Z,17.41
2019-01-13T02:19:58.122Z,17.39
2019-01-13T02:22:25.319Z,17.38
2019-01-13T02:24:52.571Z,17.38
2019-01-13T02:27:19.768Z,17.38
2019-01-13T02:29:47.100Z,17.40
2019-01-13T02:32:14.311Z,17.40
2019-01-13T02:34:41.502Z,17.41
2019-01-13T02:37:08.759Z,17.41
2019-01-13T02:39:35.988Z,17.42
2019-01-13T02:42:03.232Z,17.41
2019-01-13T02:44:30.422Z,17.38
2019-01-13T02:46:57.641Z,17.38
2019-01-13T02:49:24.886Z,17.39
2019-01-13T02:51:52.135Z,17.39
2019-01-13T02:54:19.345Z,17.41
2019-01-13T02:56:46.586Z,17.40
2019-01-13T02:59:13.832Z,17.40
2019-01-13T03:01:40.998Z,17.42
2019-01-13T03:04:08.239Z,17.44
2019-01-13T03:06:35.460Z,17.44
2019-01-13T03:09:04.543Z,17.40
2019-01-13T03:11:31.758Z,17.38
2019-01-13T03:13:58.969Z,17.42
2019-01-13T03:16:26.185Z,17.42
2019-01-13T03:18:53.424Z,17.41
2019-01-13T03:21:20.694Z,17.36
2019-01-13T03:23:47.896Z,17.40
2019-01-13T03:26:15.123Z,17.40
2019-01-13T03:28:42.326Z,17.39
2019-01-13T03:31:12.092Z,17.45
2019-01-13T03:33:38.658Z,17.45
2019-01-13T03:36:05.842Z,17.45
2019-01-13T03:38:33.099Z,17.42
2019-01-13T03:41:00.281Z,17.39
2019-01-13T03:43:27.553Z,17.42
2019-01-13T03:45:54.766Z,17.44
2019-01-13T03:48:21.985Z,17.44
2019-01-13T03:50:49.227Z,17.44
2019-01-13T03:53:16.406Z,17.44
2019-01-13T03:55:43.743Z,17.44
2019-01-13T03:58:11.279Z,17.41
2019-01-13T04:00:38.524Z,17.42
2019-01-13T04:03:05.745Z,17.38
2019-01-13T04:05:33.061Z,17.38
2019-01-13T04:08:00.260Z,17.42
2019-01-13T04:10:27.429Z,17.41
2019-01-13T04:12:54.654Z,17.39
2019-01-13T04:15:59.551Z,17.39
2019-01-13T04:18:26.832Z,17.35
2019-01-13T04:20:54.080Z,17.31
2019-01-13T04:23:21.333Z,17.31
2019-01-13T04:25:48.578Z,17.32
2019-01-13T04:28:15.825Z,17.32
2019-01-13T04:30:43.039Z,17.31
2019-01-13T04:33:10.264Z,17.37
2019-01-13T04:35:37.444Z,17.37
2019-01-13T04:38:04.665Z,17.43
2019-01-13T04:40:31.914Z,17.43
2019-01-13T04:42:59.095Z,17.48
2019-01-13T04:45:26.315Z,17.48
2019-01-13T04:47:53.507Z,17.49
2019-01-13T04:50:20.723Z,17.49
2019-01-13T04:52:47.975Z,17.52
2019-01-13T04:55:15.195Z,17.52
2019-01-13T04:57:42.419Z,17.56
2019-01-13T05:00:12.757Z,17.56
2019-01-13T05:02:40.005Z,17.57
2019-01-13T05:05:07.713Z,17.55
2019-01-13T05:07:34.985Z,17.55
2019-01-13T05:10:02.346Z,17.56
2019-01-13T05:12:29.579Z,17.57
2019-01-13T05:14:56.815Z,17.57
2019-01-13T05:17:24.062Z,17.59
2019-01-13T05:19:51.277Z,17.59
2019-01-13T05:22:18.499Z,17.62
2019-01-13T05:24:45.697Z,17.58
2019-01-13T05:27:12.906Z,17.61
2019-01-13T05:29:40.080Z,17.64
2019-01-13T05:32:07.289Z,17.63
2019-01-13T05:34:34.517Z,17.63
2019-01-13T05:37:01.783Z,17.60
2019-01-13T05:39:29.001Z,17.60
2019-01-13T05:41:56.241Z,17.57
2019-01-13T05:44:23.463Z,17.57
2019-01-13T05:46:50.754Z,17.61
2019-01-13T05:49:17.983Z,17.54
2019-01-13T05:51:45.260Z,17.54
2019-01-13T05:54:12.513Z,17.58
2019-01-13T05:56:39.719Z,17.61
2019-01-13T05:59:06.981Z,17.65
2019-01-13T06:01:34.291Z,17.65
2019-01-13T06:04:01.487Z,17.65
2019-01-13T06:06:28.770Z,17.67
2019-01-13T06:08:55.995Z,17.67
2019-01-13T06:11:23.237Z,17.68
2019-01-13T06:13:50.427Z,17.67
2019-01-13T06:16:17.640Z,17.68
2019-01-13T06:18:44.852Z,17.62
2019-01-13T06:21:12.028Z,17.62
2019-01-13T06:23:39.263Z,17.57
2019-01-13T06:26:06.593Z,17.61
2019-01-13T06:28:33.774Z,17.66
2019-01-13T06:31:00.961Z,17.65
2019-01-13T06:33:28.214Z,17.65
2019-01-13T06:35:55.405Z,17.65
2019-01-13T06:38:22.625Z,17.71
2019-01-13T06:40:49.826Z,17.76
2019-01-13T06:43:17.207Z,17.76
2019-01-13T06:45:44.355Z,17.74
2019-01-13T06:48:11.555Z,17.76
2019-01-13T06:50:38.826Z,17.75
2019-01-13T06:53:06.045Z,17.73
2019-01-13T06:55:33.219Z,17.75
2019-01-13T06:58:00.409Z,17.75
2019-01-13T07:00:27.698Z,17.74
2019-01-13T07:02:55.075Z,17.73
2019-01-13T07:05:22.388Z,17.75
2019-01-13T07:07:49.628Z,17.74
2019-01-13T07:10:16.932Z,17.71
2019-01-13T07:12:44.127Z,17.77
2019-01-13T07:15:12.569Z,17.80
2019-01-13T07:17:39.775Z,17.76
2019-01-13T07:20:09.211Z,17.78
2019-01-13T07:22:36.400Z,17.78
2019-01-13T07:25:04.225Z,17.80
2019-01-13T07:27:31.446Z,17.82
2019-01-13T07:29:58.660Z,17.80
2019-01-13T07:32:25.833Z,17.80
2019-01-13T07:34:53.106Z,17.77
2019-01-13T07:37:20.307Z,17.79
2019-01-13T07:39:47.547Z,17.81
2019-01-13T07:42:14.766Z,17.81
2019-01-13T07:44:41.986Z,17.84
2019-01-13T07:47:09.220Z,17.84
2019-01-13T07:49:36.441Z,17.86
2019-01-13T07:52:03.700Z,17.85
2019-01-13T07:54:30.899Z,17.83
2019-01-13T07:56:58.139Z,17.84
2019-01-13T07:59:25.352Z,17.82
2019-01-13T08:01:52.595Z,17.78
2019-01-13T08:04:19.845Z,17.78
2019-01-13T08:06:47.063Z,17.83
2019-01-13T08:09:14.295Z,17.84
2019-01-13T08:11:41.510Z,17.84
2019-01-13T08:14:08.730Z,17.84
2019-01-13T08:16:35.905Z,17.82
2019-01-13T08:19:03.195Z,17.82
2019-01-13T08:21:30.436Z,17.84
2019-01-13T08:23:57.664Z,17.84
2019-01-13T08:26:24.845Z,17.87
2019-01-13T08:28:52.062Z,17.85
2019-01-13T08:31:19.266Z,17.84
2019-01-13T08:33:46.447Z,17.86
2019-01-13T08:36:13.766Z,17.84
2019-01-13T08:38:41.002Z,17.84
2019-01-13T08:41:08.263Z,17.83
2019-01-13T08:43:35.480Z,17.82
2019-01-13T08:46:02.750Z,17.84
2019-01-13T08:48:29.955Z,17.84
2019-01-13T08:50:57.212Z,17.86
2019-01-13T08:53:24.476Z,17.84
2019-01-13T08:55:51.884Z,17.82
2019-01-13T08:58:19.096Z,17.82
2019-01-13T09:00:46.294Z,17.87
2019-01-13T09:03:13.540Z,17.85
2019-01-13T09:05:40.759Z,17.86
2019-01-13T09:08:07.935Z,17.85
2019-01-13T09:10:35.220Z,17.84
2019-01-13T09:13:02.432Z,17.83
2019-01-13T09:15:29.674Z,17.79
2019-01-13T09:17:56.882Z,17.84
2019-01-13T09:20:28.579Z,17.85
2019-01-13T09:22:56.931Z,17.85
2019-01-13T09:25:24.143Z,17.80
2019-01-13T09:27:51.352Z,17.85
2019-01-13T09:30:23.366Z,17.84
2019-01-13T09:32:50.590Z,17.82
2019-01-13T09:35:17.812Z,17.79
2019-01-13T09:37:45.059Z,17.82
2019-01-13T09:40:14.243Z,17.72
2019-01-13T09:42:41.481Z,17.78
2019-01-13T09:45:09.404Z,17.78
2019-01-13T09:47:36.675Z,17.83
2019-01-13T09:50:05.088Z,17.84
2019-01-13T09:52:32.287Z,17.84
2019-01-13T09:54:59.607Z,17.80
2019-01-13T09:57:26.809Z,17.84
2019-01-13T09:59:53.995Z,17.84
2019-01-13T10:02:21.445Z,17.87
2019-01-13T10:04:48.698Z,17.86
2019-01-13T10:07:16.021Z,17.84
2019-01-13T10:09:43.253Z,17.85
2019-01-13T10:12:10.449Z,17.83
2019-01-13T10:14:37.654Z,17.85
2019-01-13T10:17:04.919Z,17.85
2019-01-13T10:19:32.100Z,17.86
2019-01-13T10:21:59.337Z,17.88
2019-01-13T10:24:26.574Z,17.88
2019-01-13T10:26:53.797Z,17.83
2019-01-13T10:29:21.038Z,17.88
2019-01-13T10:31:48.254Z,17.87
2019-01-13T10:34:15.442Z,17.89
2019-01-13T10:36:42.670Z,17.90
2019-01-13T10:39:09.831Z,17.91
2019-01-13T10:41:37.058Z,17.91
2019-01-13T10:44:04.273Z,17.91
2019-01-13T10:46:31.464Z,17.90
2019-01-13T10:48:58.829Z,17.91
2019-01-13T10:51:26.027Z,17.93
2019-01-13T10:53:53.208Z,17.90
2019-01-13T10:56:20.455Z,17.90
2019-01-13T10:58:47.652Z,17.91
2019-01-13T11:01:14.838Z,17.91
2019-01-13T11:03:42.064Z,17.92
2019-01-13T11:06:09.275Z,17.86
2019-01-13T11:08:36.498Z,17.86
2019-01-13T11:11:03.731Z,17.87
2019-01-13T11:13:30.923Z,17.89
2019-01-13T11:15:58.107Z,17.91
2019-01-13T11:18:25.319Z,17.90
2019-01-13T11:20:52.688Z,17.89
2019-01-13T11:23:19.886Z,17.88
2019-01-13T11:25:47.082Z,17.88
2019-01-13T11:28:14.389Z,17.89
2019-01-13T11:30:41.543Z,17.91
2019-01-13T11:33:09.714Z,17.89
2019-01-13T11:35:37.284Z,17.92
2019-01-13T11:38:04.667Z,17.92
2019-01-13T11:40:31.862Z,17.92
2019-01-13T11:42:59.085Z,17.92
2019-01-13T11:45:26.317Z,17.91
2019-01-13T11:47:53.668Z,17.90
2019-01-13T11:50:21.612Z,17.89
2019-01-13T11:52:48.939Z,17.90
2019-01-13T11:55:16.301Z,17.87
2019-01-13T11:57:43.520Z,17.89
2019-01-13T12:00:19.525Z,17.92
2019-01-13T12:02:46.721Z,17.92
2019-01-13T12:05:14.314Z,17.88
2019-01-13T12:07:42.427Z,17.87
2019-01-13T12:10:11.603Z,17.90
2019-01-13T12:12:38.898Z,17.87
2019-01-13T12:15:08.981Z,17.87
2019-01-13T12:17:36.203Z,17.85
2019-01-13T12:20:04.245Z,17.86
2019-01-13T12:22:31.502Z,17.92
2019-01-13T12:24:58.682Z,17.92
2019-01-13T12:27:25.967Z,17.93
2019-01-13T12:29:53.174Z,17.87
2019-01-13T12:32:20.414Z,17.87
2019-01-13T12:34:47.621Z,17.89
2019-01-13T12:37:14.842Z,17.90
2019-01-13T12:39:42.086Z,17.91
2019-01-13T12:42:09.297Z,17.93
2019-01-13T12:44:36.669Z,17.92
2019-01-13T12:47:03.883Z,17.92
2019-01-13T12:49:31.119Z,17.92
2019-01-13T12:51:58.497Z,17.94
2019-01-13T12:54:25.696Z,17.98
2019-01-13T12:56:52.871Z,17.99
2019-01-13T12:59:20.095Z,18.02
2019-01-13T13:01:47.300Z,18.01
2019-01-13T13:04:14.483Z,18.04
2019-01-13T13:06:41.731Z,18.03
2019-01-13T13:09:09.019Z,18.05
2019-01-13T13:11:36.489Z,18.04
2019-01-13T13:14:03.697Z,18.00
2019-01-13T13:16:30.886Z,18.03
2019-01-13T13:18:58.115Z,18.03
2019-01-13T13:21:25.331Z,18.03
2019-01-13T13:23:52.573Z,18.05
2019-01-13T13:26:19.805Z,17.98
2019-01-13T13:28:47.045Z,18.04
2019-01-13T13:31:14.280Z,18.06
2019-01-13T13:33:41.528Z,18.06
2019-01-13T13:36:10.635Z,18.03
2019-01-13T13:38:37.878Z,18.03
2019-01-13T13:41:05.098Z,18.02
2019-01-13T13:43:31.960Z,17.99
2019-01-13T13:45:59.855Z,17.99
2019-01-13T13:48:27.034Z,18.00
2019-01-13T13:50:54.308Z,18.00
2019-01-13T13:53:21.533Z,18.00
2019-01-13T13:55:48.752Z,18.00
2019-01-13T13:58:15.958Z,17.96
2019-01-13T14:00:43.149Z,17.98
2019-01-13T14:03:10.402Z,17.92
2019-01-13T14:05:37.657Z,17.99
2019-01-13T14:08:05.510Z,17.97
2019-01-13T14:10:40.730Z,17.93
2019-01-13T14:13:08.058Z,17.94
2019-01-13T14:15:35.265Z,17.92
2019-01-13T14:18:02.495Z,17.93
2019-01-13T14:20:29.757Z,17.92
2019-01-13T14:22:56.979Z,17.89
2019-01-13T14:25:24.219Z,17.86
2019-01-13T14:27:51.371Z,17.86
2019-01-13T14:30:23.654Z,17.85
2019-01-13T14:32:50.876Z,17.85
2019-01-13T14:35:18.222Z,17.85
2019-01-13T14:37:45.430Z,17.85
2019-01-13T14:40:15.125Z,17.84
2019-01-13T14:42:42.370Z,17.82
2019-01-13T14:45:12.476Z,17.82
2019-01-13T14:47:39.712Z,17.81
2019-01-13T14:50:09.323Z,17.78
2019-01-13T14:52:36.665Z,17.79
2019-01-13T14:55:04.278Z,17.77
2019-01-13T14:57:31.477Z,17.75
2019-01-13T14:59:58.740Z,17.73
2019-01-13T15:02:25.975Z,17.73
2019-01-13T15:04:53.207Z,17.73
2019-01-13T15:07:20.370Z,17.74
2019-01-13T15:09:47.664Z,17.72
2019-01-13T15:12:14.855Z,17.63
2019-01-13T15:14:42.093Z,17.70
2019-01-13T15:17:09.425Z,17.72
2019-01-13T15:19:36.666Z,17.66
2019-01-13T15:22:03.948Z,17.71
2019-01-13T15:24:31.164Z,17.67
2019-01-13T15:26:58.384Z,17.67
2019-01-13T15:29:25.643Z,17.71
2019-01-13T15:31:52.843Z,17.71
2019-01-13T15:34:20.083Z,17.73
2019-01-13T15:36:47.315Z,17.68
2019-01-13T15:39:14.621Z,17.68
2019-01-13T15:41:41.846Z,17.71
2019-01-13T15:44:09.046Z,17.71
2019-01-13T15:46:36.271Z,17.68
2019-01-13T15:49:03.607Z,17.63
2019-01-13T15:51:30.899Z,17.63
2019-01-13T15:53:58.102Z,17.64
2019-01-13T15:56:25.317Z,17.62
2019-01-13T15:58:52.566Z,17.62
2019-01-13T16:01:19.817Z,17.59
2019-01-13T16:03:47.028Z,17.65
2019-01-13T16:06:14.270Z,17.65
2019-01-13T16:08:41.481Z,17.67
2019-01-13T16:11:08.726Z,17.67
2019-01-13T16:13:35.994Z,17.63
2019-01-13T16:16:03.174Z,17.63
2019-01-13T16:18:30.414Z,17.58
2019-01-13T16:20:57.661Z,17.62
2019-01-13T16:23:24.889Z,17.64
2019-01-13T16:25:52.105Z,17.59
2019-01-13T16:28:19.349Z,17.67
2019-01-13T16:30:46.562Z,17.67
2019-01-13T16:33:13.790Z,17.65
2019-01-13T16:35:41.117Z,17.58
2019-01-13T16:38:08.378Z,17.54
2019-01-13T16:40:35.598Z,17.54
2019-01-13T16:43:02.936Z,17.60
2019-01-13T16:45:30.127Z,17.61
2019-01-13T16:47:57.331Z,17.57
2019-01-13T16:50:25.689Z,17.59
2019-01-13T16:52:56.874Z,17.59
2019-01-13T16:55:25.171Z,17.62
2019-01-13T16:57:52.453Z,17.59
2019-01-13T17:00:21.470Z,17.58
2019-01-13T17:02:48.667Z,17.58
2019-01-13T17:05:17.119Z,17.59
2019-01-13T17:07:44.287Z,17.55
2019-01-13T17:10:13.752Z,17.55
2019-01-13T17:12:40.968Z,17.52
2019-01-13T17:15:09.611Z,17.53
2019-01-13T17:17:36.978Z,17.53
2019-01-13T17:20:06.143Z,17.51
2019-01-13T17:22:33.329Z,17.51
2019-01-13T17:25:00.557Z,17.51
2019-01-13T17:27:27.766Z,17.54
2019-01-13T17:29:54.973Z,17.52
2019-01-13T17:32:22.165Z,17.52
2019-01-13T17:34:49.393Z,17.52
2019-01-13T17:37:16.629Z,17.52
2019-01-13T17:39:43.832Z,17.55
2019-01-13T17:42:11.164Z,17.46
2019-01-13T17:44:38.373Z,17.52
2019-01-13T17:47:05.565Z,17.52
2019-01-13T17:49:32.809Z,17.50
2019-01-13T17:52:00.037Z,17.50
2019-01-13T17:54:27.256Z,17.49
2019-01-13T17:56:54.495Z,17.50
2019-01-13T17:59:21.714Z,17.51
2019-01-13T18:01:52.910Z,17.47
2019-01-13T18:04:20.099Z,17.47
2019-01-13T18:06:47.262Z,17.48
2019-01-13T18:09:14.520Z,17.47
2019-01-13T18:11:41.694Z,17.48
2019-01-13T18:14:08.951Z,17.39
2019-01-13T18:16:36.167Z,17.35
2019-01-13T18:19:03.356Z,17.35
2019-01-13T18:21:30.627Z,17.35
2019-01-13T18:23:57.824Z,17.35
2019-01-13T18:26:25.085Z,17.38
2019-01-13T18:28:52.290Z,17.35
2019-01-13T18:31:19.461Z,17.38
2019-01-13T18:33:46.659Z,17.34
2019-01-13T18:36:13.879Z,17.30
2019-01-13T18:38:41.080Z,17.30
2019-01-13T18:41:08.311Z,17.36
2019-01-13T18:43:35.553Z,17.38
2019-01-13T18:46:02.788Z,17.38
2019-01-13T18:48:30.023Z,17.38
2019-01-13T18:50:57.243Z,17.38
2019-01-13T18:53:24.495Z,17.39
2019-01-13T18:55:51.738Z,17.37
2019-01-13T18:58:18.972Z,17.37
2019-01-13T19:00:46.223Z,17.38
2019-01-13T19:03:13.461Z,17.40
2019-01-13T19:05:40.659Z,17.40
2019-01-13T19:08:07.865Z,17.38
2019-01-13T19:10:59.684Z,17.39
2019-01-13T19:14:16.353Z,17.38
2019-01-13T19:17:08.870Z,17.38
2019-01-13T19:19:45.841Z,17.37
2019-01-13T19:22:13.005Z,17.36
2019-01-13T19:24:40.263Z,17.41
2019-01-13T19:27:07.434Z,17.43
2019-01-13T19:29:34.880Z,17.38
2019-01-13T19:32:02.114Z,17.39
2019-01-13T19:34:29.318Z,17.39
2019-01-13T19:36:56.524Z,17.38
2019-01-13T19:39:23.774Z,17.42
2019-01-13T19:41:51.196Z,17.42
2019-01-13T19:44:18.438Z,17.42
2019-01-13T19:46:45.766Z,17.42
2019-01-13T19:49:12.993Z,17.40
2019-01-13T19:51:40.192Z,17.40
2019-01-13T19:54:07.462Z,17.40
2019-01-13T19:56:34.682Z,17.36
2019-01-13T19:59:01.968Z,17.36
2019-01-13T20:01:29.209Z,17.31
2019-01-13T20:03:56.646Z,17.28
2019-01-13T20:06:23.833Z,17.28
2019-01-13T20:08:51.114Z,17.22
2019-01-13T20:11:18.454Z,17.30
2019-01-13T20:13:45.643Z,17.27
2019-01-13T20:16:12.835Z,17.20
2019-01-13T20:18:40.622Z,17.20
2019-01-13T20:21:07.861Z,17.22
2019-01-13T20:23:35.091Z,17.35
2019-01-13T20:26:02.299Z,17.35
2019-01-13T20:28:29.514Z,17.35
2019-01-13T20:30:56.789Z,17.35
2019-01-13T20:33:24.127Z,17.30
2019-01-13T20:35:51.615Z,17.30
2019-01-13T20:38:18.935Z,17.31
2019-01-13T20:40:46.201Z,17.31
2019-01-13T20:43:13.404Z,17.38
2019-01-13T20:45:41.588Z,17.38
2019-01-13T20:48:08.769Z,17.38
2019-01-13T20:50:36.055Z,17.36
2019-01-13T20:53:03.430Z,17.36
2019-01-13T20:55:30.644Z,17.34
2019-01-13T20:57:57.857Z,17.34
2019-01-13T21:00:25.199Z,17.33
2019-01-13T21:02:52.456Z,17.30
2019-01-13T21:05:26.297Z,17.29
2019-01-13T21:07:48.971Z,17.28
2019-01-13T21:10:16.459Z,17.28
2019-01-13T21:12:43.700Z,17.28
2019-01-13T21:15:13.631Z,17.31
2019-01-13T21:17:40.913Z,17.31
2019-01-13T21:20:08.127Z,17.29
2019-01-13T21:22:35.419Z,17.27
2019-01-13T21:25:02.623Z,17.27
2019-01-13T21:27:29.973Z,17.30
2019-01-13T21:30:01.333Z,17.27
2019-01-13T21:32:26.311Z,17.29
2019-01-13T21:34:53.606Z,17.29
2019-01-13T21:37:20.783Z,17.30
2019-01-13T21:39:48.067Z,17.26
2019-01-13T21:42:15.264Z,17.25
2019-01-13T21:44:42.446Z,17.25
2019-01-13T21:47:09.680Z,17.25
2019-01-13T21:49:36.880Z,17.21
2019-01-13T21:52:04.183Z,17.23
2019-01-13T21:54:31.414Z,17.19
2019-01-13T21:56:58.612Z,17.19
2019-01-13T21:59:25.851Z,17.15
2019-01-13T22:01:53.087Z,17.21
2019-01-13T22:04:20.340Z,17.16
2019-01-13T22:06:47.796Z,17.13
2019-01-13T22:09:15.010Z,17.13
2019-01-13T22:11:42.284Z,17.10
2019-01-13T22:14:09.479Z,17.10
2019-01-13T22:16:36.697Z,17.09
2019-01-13T22:19:03.910Z,17.10
2019-01-13T22:21:31.255Z,17.09
2019-01-13T22:23:58.451Z,17.12
2019-01-13T22:26:25.634Z,17.13
2019-01-13T22:28:52.849Z,17.06
2019-01-13T22:31:22.447Z,17.02
2019-01-13T22:33:49.201Z,17.09
2019-01-13T22:36:16.549Z,17.09
2019-01-13T22:38:43.834Z,17.05
2019-01-13T22:41:11.641Z,17.05
2019-01-13T22:43:38.850Z,17.04
2019-01-13T22:46:06.149Z,17.04
2019-01-13T22:48:34.338Z,17.00
2019-01-13T22:51:02.043Z,17.01
2019-01-13T22:53:29.299Z,17.06
2019-01-13T22:55:56.521Z,17.08
2019-01-13T22:58:23.804Z,17.07
2019-01-13T23:01:44.383Z,17.08
2019-01-13T23:04:13.410Z,17.03
2019-01-13T23:06:40.659Z,17.01
2019-01-13T23:09:08.963Z,17.03
2019-01-13T23:11:36.374Z,16.95
2019-01-13T23:14:03.882Z,16.95
2019-01-13T23:16:31.130Z,16.95
2019-01-13T23:18:58.512Z,16.97
2019-01-13T23:21:25.726Z,16.97
2019-01-13T23:23:53.078Z,16.96
2019-01-13T23:26:20.623Z,16.96
2019-01-13T23:28:47.845Z,16.95
2019-01-13T23:31:15.090Z,16.92
2019-01-13T23:33:42.287Z,16.91
2019-01-13T23:36:09.527Z,16.94
2019-01-13T23:38:36.886Z,16.89
2019-01-13T23:41:04.381Z,16.88
2019-01-13T23:43:31.661Z,16.88
2019-01-13T23:45:58.842Z,16.88
2019-01-13T23:48:26.259Z,16.87
2019-01-13T23:50:53.623Z,16.88
2019-01-13T23:53:20.873Z,16.88
2019-01-13T23:55:48.086Z,16.88
2019-01-13T23:58:15.353Z,16.87
